sensor_id;sensor_type;location;lat;lon;timestamp;pressure;altitude;pressure_sealevel;temperature;humidity
54389;BME280;40975;50.390;8.640;2022-07-06T00:01:19;99783.91;;;13.93;95.66
54389;BME280;40975;50.390;8.640;2022-07-06T00:03:45;99771.19;;;13.87;96.19
54389;BME280;40975;50.390;8.640;2022-07-06T00:06:10;99785.97;;;13.99;95.70
54389;BME280;40975;50.390;8.640;2022-07-06T00:08:36;99783.09;;;13.93;95.58
54389;BME280;40975;50.390;8.640;2022-07-06T00:11:02;99786.50;;;13.85;96.59
54389;BME280;40975;50.390;8.640;2022-07-06T00:13:27;99788.56;;;13.73;97.33
54389;BME280;40975;50.390;8.640;2022-07-06T00:15:53;99786.09;;;13.62;99.81
54389;BME280;40975;50.390;8.640;2022-07-06T00:18:19;99786.84;;;13.54;100.00
54389;BME280;40975;50.390;8.640;2022-07-06T00:20:44;99783.97;;;13.37;100.00
54389;BME280;40975;50.390;8.640;2022-07-06T00:23:10;99786.25;;;13.32;100.00
54389;BME280;40975;50.390;8.640;2022-07-06T00:25:35;99792.25;;;13.34;100.00
54389;BME280;40975;50.390;8.640;2022-07-06T00:28:00;99791.00;;;13.29;100.00
54389;BME280;40975;50.390;8.640;2022-07-06T00:30:26;99798.19;;;13.28;100.00
54389;BME280;40975;50.390;8.640;2022-07-06T00:32:52;99789.31;;;13.28;100.00
54389;BME280;40975;50.390;8.640;2022-07-06T00:35:17;99783.63;;;13.22;100.00
54389;BME280;40975;50.390;8.640;2022-07-06T00:37:43;99777.31;;;13.24;100.00
54389;BME280;40975;50.390;8.640;2022-07-06T00:40:08;99791.59;;;13.22;100.00
54389;BME280;40975;50.390;8.640;2022-07-06T00:42:42;99785.84;;;13.27;100.00
54389;BME280;40975;50.390;8.640;2022-07-06T00:45:09;99783.72;;;13.31;100.00
54389;BME280;40975;50.390;8.640;2022-07-06T00:47:35;99781.19;;;13.29;100.00
54389;BME280;40975;50.390;8.640;2022-07-06T00:50:01;99781.50;;;13.26;100.00
54389;BME280;40975;50.390;8.640;2022-07-06T00:52:41;99784.75;;;13.20;100.00
54389;BME280;40975;50.390;8.640;2022-07-06T00:55:09;99779.09;;;13.23;100.00
54389;BME280;40975;50.390;8.640;2022-07-06T00:57:35;99783.63;;;13.13;100.00
54389;BME280;40975;50.390;8.640;2022-07-06T01:00:02;99776.53;;;13.03;100.00
54389;BME280;40975;50.390;8.640;2022-07-06T01:02:31;99777.81;;;12.99;100.00
54389;BME280;40975;50.390;8.640;2022-07-06T01:04:56;99782.88;;;12.93;100.00
54389;BME280;40975;50.390;8.640;2022-07-06T01:07:22;99789.19;;;12.91;100.00
54389;BME280;40975;50.390;8.640;2022-07-06T01:09:47;99781.66;;;12.87;100.00
54389;BME280;40975;50.390;8.640;2022-07-06T01:12:12;99786.88;;;12.79;100.00
54389;BME280;40975;50.390;8.640;2022-07-06T01:14:38;99781.72;;;12.67;100.00
54389;BME280;40975;50.390;8.640;2022-07-06T01:17:03;99777.09;;;12.69;100.00
54389;BME280;40975;50.390;8.640;2022-07-06T01:19:29;99783.66;;;12.65;100.00
54389;BME280;40975;50.390;8.640;2022-07-06T01:21:54;99778.66;;;12.62;100.00
54389;BME280;40975;50.390;8.640;2022-07-06T01:24:19;99779.88;;;12.68;100.00
54389;BME280;40975;50.390;8.640;2022-07-06T01:26:45;99776.94;;;12.71;100.00
54389;BME280;40975;50.390;8.640;2022-07-06T01:29:10;99779.03;;;12.67;100.00
54389;BME280;40975;50.390;8.640;2022-07-06T01:31:46;99777.78;;;12.71;100.00
54389;BME280;40975;50.390;8.640;2022-07-06T01:34:12;99774.25;;;12.71;100.00
54389;BME280;40975;50.390;8.640;2022-07-06T01:36:38;99777.91;;;12.70;100.00
54389;BME280;40975;50.390;8.640;2022-07-06T01:39:03;99779.47;;;12.72;100.00
54389;BME280;40975;50.390;8.640;2022-07-06T01:41:29;99773.44;;;12.70;100.00
54389;BME280;40975;50.390;8.640;2022-07-06T01:43:54;99773.97;;;12.74;100.00
54389;BME280;40975;50.390;8.640;2022-07-06T01:46:20;99773.28;;;12.82;100.00
54389;BME280;40975;50.390;8.640;2022-07-06T01:48:46;99761.75;;;12.81;100.00
54389;BME280;40975;50.390;8.640;2022-07-06T01:51:12;99780.56;;;12.80;100.00
54389;BME280;40975;50.390;8.640;2022-07-06T01:53:38;99769.63;;;12.73;100.00
54389;BME280;40975;50.390;8.640;2022-07-06T01:56:05;99775.25;;;12.70;100.00
54389;BME280;40975;50.390;8.640;2022-07-06T01:58:31;99768.94;;;12.71;100.00
54389;BME280;40975;50.390;8.640;2022-07-06T02:00:56;99772.31;;;12.73;100.00
54389;BME280;40975;50.390;8.640;2022-07-06T02:03:22;99776.50;;;12.75;100.00
54389;BME280;40975;50.390;8.640;2022-07-06T02:05:47;99767.09;;;12.81;100.00
54389;BME280;40975;50.390;8.640;2022-07-06T02:08:12;99762.84;;;12.88;100.00
54389;BME280;40975;50.390;8.640;2022-07-06T02:10:38;99768.16;;;12.88;100.00
54389;BME280;40975;50.390;8.640;2022-07-06T02:13:03;99765.78;;;12.95;100.00
54389;BME280;40975;50.390;8.640;2022-07-06T02:15:30;99772.34;;;13.01;100.00
54389;BME280;40975;50.390;8.640;2022-07-06T02:17:56;99771.34;;;13.02;100.00
54389;BME280;40975;50.390;8.640;2022-07-06T02:20:23;99772.50;;;12.99;100.00
54389;BME280;40975;50.390;8.640;2022-07-06T02:22:48;99767.44;;;13.06;100.00
54389;BME280;40975;50.390;8.640;2022-07-06T02:25:14;99767.44;;;13.06;100.00
54389;BME280;40975;50.390;8.640;2022-07-06T02:27:39;99763.19;;;13.13;100.00
54389;BME280;40975;50.390;8.640;2022-07-06T02:30:08;99761.78;;;13.09;100.00
54389;BME280;40975;50.390;8.640;2022-07-06T02:32:34;99759.97;;;13.10;100.00
54389;BME280;40975;50.390;8.640;2022-07-06T02:34:59;99760.69;;;13.12;100.00
54389;BME280;40975;50.390;8.640;2022-07-06T02:37:25;99758.22;;;13.18;100.00
54389;BME280;40975;50.390;8.640;2022-07-06T02:39:50;99760.34;;;13.15;100.00
54389;BME280;40975;50.390;8.640;2022-07-06T02:42:16;99757.41;;;13.18;100.00
54389;BME280;40975;50.390;8.640;2022-07-06T02:44:41;99754.78;;;13.08;100.00
54389;BME280;40975;50.390;8.640;2022-07-06T02:47:06;99760.97;;;13.09;100.00
54389;BME280;40975;50.390;8.640;2022-07-06T02:49:32;99765.16;;;13.11;100.00
54389;BME280;40975;50.390;8.640;2022-07-06T02:51:57;99763.38;;;13.02;100.00
54389;BME280;40975;50.390;8.640;2022-07-06T02:54:23;99773.19;;;13.01;100.00
54389;BME280;40975;50.390;8.640;2022-07-06T02:56:49;99770.91;;;13.06;100.00
54389;BME280;40975;50.390;8.640;2022-07-06T02:59:21;99769.84;;;12.99;100.00
54389;BME280;40975;50.390;8.640;2022-07-06T03:01:47;99770.66;;;13.00;100.00
54389;BME280;40975;50.390;8.640;2022-07-06T03:04:13;99775.69;;;13.03;100.00
54389;BME280;40975;50.390;8.640;2022-07-06T03:06:40;99773.31;;;13.00;100.00
54389;BME280;40975;50.390;8.640;2022-07-06T03:09:06;99770.47;;;13.11;100.00
54389;BME280;40975;50.390;8.640;2022-07-06T03:11:32;99775.97;;;13.10;100.00
54389;BME280;40975;50.390;8.640;2022-07-06T03:14:03;99771.63;;;13.09;100.00
54389;BME280;40975;50.390;8.640;2022-07-06T03:16:29;99778.75;;;13.08;100.00
54389;BME280;40975;50.390;8.640;2022-07-06T03:18:54;99774.88;;;13.02;100.00
54389;BME280;40975;50.390;8.640;2022-07-06T03:21:20;99776.69;;;13.02;100.00
54389;BME280;40975;50.390;8.640;2022-07-06T03:23:45;99787.19;;;13.03;100.00
54389;BME280;40975;50.390;8.640;2022-07-06T03:26:10;99792.66;;;13.02;100.00
54389;BME280;40975;50.390;8.640;2022-07-06T03:28:36;99798.44;;;12.97;100.00
54389;BME280;40975;50.390;8.640;2022-07-06T03:31:02;99798.88;;;12.93;100.00
54389;BME280;40975;50.390;8.640;2022-07-06T03:33:27;99791.03;;;12.91;100.00
54389;BME280;40975;50.390;8.640;2022-07-06T03:35:52;99800.00;;;12.90;100.00
54389;BME280;40975;50.390;8.640;2022-07-06T03:38:18;99803.13;;;12.85;100.00
54389;BME280;40975;50.390;8.640;2022-07-06T03:40:43;99813.91;;;12.84;100.00
54389;BME280;40975;50.390;8.640;2022-07-06T03:43:08;99802.81;;;12.88;100.00
54389;BME280;40975;50.390;8.640;2022-07-06T03:45:35;99810.50;;;12.91;100.00
54389;BME280;40975;50.390;8.640;2022-07-06T03:48:02;99808.56;;;12.84;100.00
54389;BME280;40975;50.390;8.640;2022-07-06T03:50:30;99808.28;;;12.87;100.00
54389;BME280;40975;50.390;8.640;2022-07-06T03:52:57;99813.28;;;13.00;100.00
54389;BME280;40975;50.390;8.640;2022-07-06T03:55:22;99821.97;;;13.02;100.00
54389;BME280;40975;50.390;8.640;2022-07-06T03:57:54;99819.16;;;13.03;100.00
54389;BME280;40975;50.390;8.640;2022-07-06T04:00:21;99820.84;;;13.04;100.00
54389;BME280;40975;50.390;8.640;2022-07-06T04:02:54;99823.06;;;13.19;100.00
54389;BME280;40975;50.390;8.640;2022-07-06T04:05:24;99834.41;;;13.21;100.00
54389;BME280;40975;50.390;8.640;2022-07-06T04:07:52;99826.06;;;13.34;100.00
54389;BME280;40975;50.390;8.640;2022-07-06T04:10:19;99823.41;;;13.34;100.00
54389;BME280;40975;50.390;8.640;2022-07-06T04:12:44;99829.84;;;13.41;100.00
54389;BME280;40975;50.390;8.640;2022-07-06T04:15:12;99830.09;;;13.48;100.00
54389;BME280;40975;50.390;8.640;2022-07-06T04:17:38;99829.28;;;13.47;100.00
54389;BME280;40975;50.390;8.640;2022-07-06T04:20:30;99832.78;;;13.48;100.00
54389;BME280;40975;50.390;8.640;2022-07-06T04:22:56;99838.66;;;13.51;100.00
54389;BME280;40975;50.390;8.640;2022-07-06T04:25:24;99838.38;;;13.55;100.00
54389;BME280;40975;50.390;8.640;2022-07-06T04:27:50;99841.66;;;13.66;100.00
54389;BME280;40975;50.390;8.640;2022-07-06T04:30:16;99853.22;;;13.57;100.00
54389;BME280;40975;50.390;8.640;2022-07-06T04:32:42;99843.81;;;13.53;100.00
54389;BME280;40975;50.390;8.640;2022-07-06T04:35:09;99846.34;;;13.55;100.00
54389;BME280;40975;50.390;8.640;2022-07-06T04:37:34;99853.22;;;13.57;100.00
54389;BME280;40975;50.390;8.640;2022-07-06T04:40:00;99852.13;;;13.50;100.00
54389;BME280;40975;50.390;8.640;2022-07-06T04:42:26;99856.31;;;13.52;100.00
54389;BME280;40975;50.390;8.640;2022-07-06T04:44:51;99856.78;;;13.48;100.00
54389;BME280;40975;50.390;8.640;2022-07-06T04:47:17;99864.50;;;13.51;100.00
54389;BME280;40975;50.390;8.640;2022-07-06T04:49:43;99855.50;;;13.52;100.00
54389;BME280;40975;50.390;8.640;2022-07-06T04:52:09;99866.09;;;13.62;100.00
54389;BME280;40975;50.390;8.640;2022-07-06T04:54:34;99862.50;;;13.53;100.00
54389;BME280;40975;50.390;8.640;2022-07-06T04:57:00;99859.72;;;13.45;100.00
54389;BME280;40975;50.390;8.640;2022-07-06T04:59:26;99862.38;;;13.55;100.00
54389;BME280;40975;50.390;8.640;2022-07-06T05:01:51;99871.06;;;13.57;100.00
54389;BME280;40975;50.390;8.640;2022-07-06T05:04:17;99865.56;;;13.58;100.00
54389;BME280;40975;50.390;8.640;2022-07-06T05:06:45;99873.94;;;13.63;100.00
54389;BME280;40975;50.390;8.640;2022-07-06T05:09:11;99874.06;;;13.72;100.00
54389;BME280;40975;50.390;8.640;2022-07-06T05:11:36;99882.16;;;13.80;100.00
54389;BME280;40975;50.390;8.640;2022-07-06T05:14:03;99879.44;;;13.90;100.00
54389;BME280;40975;50.390;8.640;2022-07-06T05:16:29;99874.41;;;14.05;100.00
54389;BME280;40975;50.390;8.640;2022-07-06T05:18:55;99878.78;;;14.06;100.00
54389;BME280;40975;50.390;8.640;2022-07-06T05:21:21;99882.38;;;14.14;100.00
54389;BME280;40975;50.390;8.640;2022-07-06T05:23:46;99874.44;;;14.23;100.00
54389;BME280;40975;50.390;8.640;2022-07-06T05:26:12;99878.50;;;14.27;100.00
54389;BME280;40975;50.390;8.640;2022-07-06T05:28:38;99879.09;;;14.39;100.00
54389;BME280;40975;50.390;8.640;2022-07-06T05:31:07;99885.97;;;14.41;100.00
54389;BME280;40975;50.390;8.640;2022-07-06T05:33:32;99884.75;;;14.54;100.00
54389;BME280;40975;50.390;8.640;2022-07-06T05:35:57;99900.53;;;14.65;100.00
54389;BME280;40975;50.390;8.640;2022-07-06T05:38:26;99893.66;;;14.62;100.00
54389;BME280;40975;50.390;8.640;2022-07-06T05:40:52;99895.00;;;14.76;100.00
54389;BME280;40975;50.390;8.640;2022-07-06T05:43:17;99898.25;;;14.88;100.00
54389;BME280;40975;50.390;8.640;2022-07-06T05:45:43;99896.13;;;15.53;97.46
54389;BME280;40975;50.390;8.640;2022-07-06T05:48:09;99890.50;;;15.99;94.71
54389;BME280;40975;50.390;8.640;2022-07-06T05:50:54;99886.91;;;16.41;91.72
54389;BME280;40975;50.390;8.640;2022-07-06T05:53:21;99897.25;;;16.36;90.84
54389;BME280;40975;50.390;8.640;2022-07-06T05:55:50;99896.03;;;16.14;92.54
54389;BME280;40975;50.390;8.640;2022-07-06T05:58:16;99892.22;;;16.25;91.44
54389;BME280;40975;50.390;8.640;2022-07-06T06:00:43;99904.97;;;16.39;92.10
54389;BME280;40975;50.390;8.640;2022-07-06T06:03:14;99905.81;;;17.22;87.80
54389;BME280;40975;50.390;8.640;2022-07-06T06:05:40;99897.03;;;17.45;83.49
54389;BME280;40975;50.390;8.640;2022-07-06T06:08:08;99898.72;;;18.26;81.39
54389;BME280;40975;50.390;8.640;2022-07-06T06:10:33;99895.00;;;18.50;78.27
54389;BME280;40975;50.390;8.640;2022-07-06T06:13:02;99892.88;;;19.22;74.92
54389;BME280;40975;50.390;8.640;2022-07-06T06:15:28;99880.75;;;19.86;70.69
54389;BME280;40975;50.390;8.640;2022-07-06T06:17:53;99894.00;;;19.87;70.23
54389;BME280;40975;50.390;8.640;2022-07-06T06:20:19;99892.22;;;20.53;66.23
54389;BME280;40975;50.390;8.640;2022-07-06T06:22:49;99888.88;;;20.94;65.20
54389;BME280;40975;50.390;8.640;2022-07-06T06:25:19;99893.78;;;21.48;62.83
54389;BME280;40975;50.390;8.640;2022-07-06T06:27:45;99894.84;;;21.53;61.38
54389;BME280;40975;50.390;8.640;2022-07-06T06:30:11;99888.22;;;21.56;60.91
54389;BME280;40975;50.390;8.640;2022-07-06T06:32:37;99884.31;;;22.20;59.67
54389;BME280;40975;50.390;8.640;2022-07-06T06:35:04;99875.13;;;22.08;59.33
54389;BME280;40975;50.390;8.640;2022-07-06T06:37:29;99880.34;;;22.03;60.60
54389;BME280;40975;50.390;8.640;2022-07-06T06:42:20;99878.16;;;20.58;61.13
54389;BME280;40975;50.390;8.640;2022-07-06T06:44:47;99870.81;;;20.73;61.51
54389;BME280;40975;50.390;8.640;2022-07-06T06:47:13;99874.69;;;20.21;63.50
54389;BME280;40975;50.390;8.640;2022-07-06T06:49:38;99885.78;;;20.11;63.24
54389;BME280;40975;50.390;8.640;2022-07-06T06:52:04;99885.06;;;19.72;64.97
54389;BME280;40975;50.390;8.640;2022-07-06T06:54:29;99890.66;;;19.55;65.13
54389;BME280;40975;50.390;8.640;2022-07-06T06:56:54;99898.47;;;19.35;65.30
54389;BME280;40975;50.390;8.640;2022-07-06T06:59:19;99892.91;;;19.37;65.75
54389;BME280;40975;50.390;8.640;2022-07-06T07:01:45;99889.41;;;20.03;63.83
54389;BME280;40975;50.390;8.640;2022-07-06T07:04:10;99889.31;;;20.55;61.35
54389;BME280;40975;50.390;8.640;2022-07-06T07:06:37;99894.09;;;20.74;59.07
54389;BME280;40975;50.390;8.640;2022-07-06T07:09:02;99905.22;;;20.93;57.36
54389;BME280;40975;50.390;8.640;2022-07-06T07:11:27;99906.88;;;21.16;55.65
54389;BME280;40975;50.390;8.640;2022-07-06T07:13:53;99904.25;;;21.29;53.62
54389;BME280;40975;50.390;8.640;2022-07-06T07:16:18;99914.84;;;21.31;52.82
54389;BME280;40975;50.390;8.640;2022-07-06T07:18:43;99906.53;;;22.09;51.14
54389;BME280;40975;50.390;8.640;2022-07-06T07:21:09;99905.00;;;22.55;50.15
54389;BME280;40975;50.390;8.640;2022-07-06T07:23:34;99914.38;;;22.59;49.01
54389;BME280;40975;50.390;8.640;2022-07-06T07:25:59;99914.56;;;23.45;48.42
54389;BME280;40975;50.390;8.640;2022-07-06T07:28:25;99917.47;;;23.50;48.30
54389;BME280;40975;50.390;8.640;2022-07-06T07:30:50;99921.31;;;23.95;46.86
54389;BME280;40975;50.390;8.640;2022-07-06T07:33:16;99927.63;;;23.68;44.25
54389;BME280;40975;50.390;8.640;2022-07-06T07:35:41;99921.94;;;21.60;49.23
54389;BME280;40975;50.390;8.640;2022-07-06T07:38:06;99915.94;;;21.36;49.00
54389;BME280;40975;50.390;8.640;2022-07-06T07:40:31;99923.78;;;22.90;47.09
54389;BME280;40975;50.390;8.640;2022-07-06T07:42:58;99910.38;;;25.04;44.26
54389;BME280;40975;50.390;8.640;2022-07-06T07:45:23;99920.97;;;25.56;42.47
54389;BME280;40975;50.390;8.640;2022-07-06T07:47:49;99921.63;;;24.18;44.53
54389;BME280;40975;50.390;8.640;2022-07-06T07:50:14;99917.63;;;23.75;44.94
54389;BME280;40975;50.390;8.640;2022-07-06T07:52:40;99912.81;;;22.30;49.55
54389;BME280;40975;50.390;8.640;2022-07-06T07:55:05;99920.03;;;23.25;47.49
54389;BME280;40975;50.390;8.640;2022-07-06T07:57:31;99914.72;;;24.16;44.99
54389;BME280;40975;50.390;8.640;2022-07-06T07:59:56;99908.84;;;24.90;44.24
54389;BME280;40975;50.390;8.640;2022-07-06T08:02:21;99901.28;;;24.92;42.45
54389;BME280;40975;50.390;8.640;2022-07-06T08:04:47;99916.50;;;25.62;41.34
54389;BME280;40975;50.390;8.640;2022-07-06T08:07:12;99900.75;;;26.01;41.25
54389;BME280;40975;50.390;8.640;2022-07-06T08:09:37;99905.81;;;26.47;40.10
54389;BME280;40975;50.390;8.640;2022-07-06T08:12:03;99915.31;;;23.79;44.43
54389;BME280;40975;50.390;8.640;2022-07-06T08:14:28;99909.19;;;22.02;45.34
54389;BME280;40975;50.390;8.640;2022-07-06T08:16:54;99911.00;;;23.51;44.52
54389;BME280;40975;50.390;8.640;2022-07-06T08:19:19;99905.19;;;24.45;43.77
54389;BME280;40975;50.390;8.640;2022-07-06T08:21:44;99903.19;;;25.91;39.74
54389;BME280;40975;50.390;8.640;2022-07-06T08:24:10;99911.66;;;26.20;39.19
54389;BME280;40975;50.390;8.640;2022-07-06T08:26:36;99911.47;;;27.59;37.74
54389;BME280;40975;50.390;8.640;2022-07-06T08:29:02;99912.06;;;28.60;35.25
54389;BME280;40975;50.390;8.640;2022-07-06T08:31:27;99904.50;;;26.92;37.47
54389;BME280;40975;50.390;8.640;2022-07-06T08:33:56;99914.00;;;27.25;36.93
54389;BME280;40975;50.390;8.640;2022-07-06T08:36:22;99919.22;;;24.67;41.62
54389;BME280;40975;50.390;8.640;2022-07-06T08:38:48;99923.78;;;22.90;44.58
54389;BME280;40975;50.390;8.640;2022-07-06T08:41:15;99917.03;;;23.47;44.91
54389;BME280;40975;50.390;8.640;2022-07-06T08:43:40;99915.84;;;23.09;46.76
54389;BME280;40975;50.390;8.640;2022-07-06T08:46:07;99913.31;;;26.02;39.14
54389;BME280;40975;50.390;8.640;2022-07-06T08:48:36;99918.75;;;27.94;36.44
54389;BME280;40975;50.390;8.640;2022-07-06T08:51:06;99913.31;;;29.03;34.53
54389;BME280;40975;50.390;8.640;2022-07-06T08:53:32;99909.47;;;30.00;32.80
54389;BME280;40975;50.390;8.640;2022-07-06T08:55:58;99921.53;;;30.53;30.52
54389;BME280;40975;50.390;8.640;2022-07-06T08:58:26;99911.97;;;30.56;29.67
54389;BME280;40975;50.390;8.640;2022-07-06T09:00:56;99908.81;;;30.75;28.11
54389;BME280;40975;50.390;8.640;2022-07-06T09:03:23;99920.00;;;31.43;28.67
54389;BME280;40975;50.390;8.640;2022-07-06T09:05:50;99913.09;;;31.84;28.41
54389;BME280;40975;50.390;8.640;2022-07-06T09:08:15;99913.44;;;32.18;28.30
54389;BME280;40975;50.390;8.640;2022-07-06T09:10:42;99919.22;;;32.22;27.65
54389;BME280;40975;50.390;8.640;2022-07-06T09:13:08;99917.22;;;29.63;30.41
54389;BME280;40975;50.390;8.640;2022-07-06T09:15:35;99915.91;;;26.58;34.39
54389;BME280;40975;50.390;8.640;2022-07-06T09:18:01;99925.06;;;24.71;36.51
54389;BME280;40975;50.390;8.640;2022-07-06T09:20:28;99918.34;;;24.03;38.13
54389;BME280;40975;50.390;8.640;2022-07-06T09:23:02;99915.50;;;27.68;33.43
54389;BME280;40975;50.390;8.640;2022-07-06T09:25:29;99917.25;;;29.46;30.79
54389;BME280;40975;50.390;8.640;2022-07-06T09:27:56;99912.69;;;28.96;30.61
54389;BME280;40975;50.390;8.640;2022-07-06T09:30:24;99916.03;;;26.63;33.58
54389;BME280;40975;50.390;8.640;2022-07-06T09:32:53;99914.03;;;25.17;35.54
54389;BME280;40975;50.390;8.640;2022-07-06T09:35:21;99911.03;;;24.42;38.11
54389;BME280;40975;50.390;8.640;2022-07-06T09:37:47;99901.09;;;26.54;33.71
54389;BME280;40975;50.390;8.640;2022-07-06T09:40:19;99913.47;;;28.16;31.19
54389;BME280;40975;50.390;8.640;2022-07-06T09:42:45;99895.22;;;28.97;28.38
54389;BME280;40975;50.390;8.640;2022-07-06T09:45:10;99907.81;;;30.26;29.22
54389;BME280;40975;50.390;8.640;2022-07-06T09:47:36;99911.34;;;30.49;28.22
54389;BME280;40975;50.390;8.640;2022-07-06T09:50:05;99909.56;;;29.43;30.98
54389;BME280;40975;50.390;8.640;2022-07-06T09:52:34;99913.72;;;28.15;31.11
54389;BME280;40975;50.390;8.640;2022-07-06T09:54:59;99919.28;;;29.34;30.98
54389;BME280;40975;50.390;8.640;2022-07-06T09:57:24;99916.53;;;30.50;29.63
54389;BME280;40975;50.390;8.640;2022-07-06T09:59:51;99912.13;;;31.57;28.46
54389;BME280;40975;50.390;8.640;2022-07-06T10:02:19;99911.50;;;32.03;25.23
54389;BME280;40975;50.390;8.640;2022-07-06T10:04:45;99901.84;;;31.85;26.36
54389;BME280;40975;50.390;8.640;2022-07-06T10:07:11;99908.06;;;32.85;27.18
54389;BME280;40975;50.390;8.640;2022-07-06T10:09:37;99910.75;;;31.60;26.31
54389;BME280;40975;50.390;8.640;2022-07-06T10:12:03;99901.91;;;31.42;26.47
54389;BME280;40975;50.390;8.640;2022-07-06T10:14:32;99893.13;;;31.45;27.66
54389;BME280;40975;50.390;8.640;2022-07-06T10:17:02;99900.44;;;29.99;27.78
54389;BME280;40975;50.390;8.640;2022-07-06T10:19:30;99895.06;;;30.09;27.08
54389;BME280;40975;50.390;8.640;2022-07-06T10:22:01;99897.38;;;30.50;28.42
54389;BME280;40975;50.390;8.640;2022-07-06T10:24:27;99906.41;;;28.32;30.23
54389;BME280;40975;50.390;8.640;2022-07-06T10:26:54;99889.94;;;26.32;34.33
54389;BME280;40975;50.390;8.640;2022-07-06T10:29:20;99899.38;;;25.61;36.44
54389;BME280;40975;50.390;8.640;2022-07-06T10:31:47;99902.97;;;24.93;36.84
54389;BME280;40975;50.390;8.640;2022-07-06T10:34:15;99906.88;;;24.40;38.52
54389;BME280;40975;50.390;8.640;2022-07-06T10:36:43;99906.06;;;24.00;38.99
54389;BME280;40975;50.390;8.640;2022-07-06T10:39:10;99906.41;;;23.58;39.68
54389;BME280;40975;50.390;8.640;2022-07-06T10:41:54;99895.06;;;24.91;37.75
54389;BME280;40975;50.390;8.640;2022-07-06T10:44:22;99900.75;;;25.52;35.97
54389;BME280;40975;50.390;8.640;2022-07-06T10:46:55;99892.91;;;26.96;34.02
54389;BME280;40975;50.390;8.640;2022-07-06T10:49:22;99897.97;;;28.34;33.27
54389;BME280;40975;50.390;8.640;2022-07-06T10:51:48;99897.41;;;29.00;30.62
54389;BME280;40975;50.390;8.640;2022-07-06T10:54:15;99896.47;;;27.09;32.06
54389;BME280;40975;50.390;8.640;2022-07-06T10:56:44;99904.06;;;25.73;35.00
54389;BME280;40975;50.390;8.640;2022-07-06T10:59:17;99895.53;;;26.18;35.26
54389;BME280;40975;50.390;8.640;2022-07-06T11:04:36;99895.50;;;26.91;33.88
54389;BME280;40975;50.390;8.640;2022-07-06T11:07:08;99880.44;;;27.60;33.61
54389;BME280;40975;50.390;8.640;2022-07-06T11:09:35;99886.97;;;28.46;33.15
54389;BME280;40975;50.390;8.640;2022-07-06T11:12:12;99885.50;;;28.38;30.92
54389;BME280;40975;50.390;8.640;2022-07-06T11:14:38;99881.75;;;27.57;33.75
54389;BME280;40975;50.390;8.640;2022-07-06T11:17:04;99886.41;;;26.97;31.90
54389;BME280;40975;50.390;8.640;2022-07-06T11:19:30;99897.13;;;26.26;33.62
54389;BME280;40975;50.390;8.640;2022-07-06T11:21:58;99889.63;;;25.72;34.68
54389;BME280;40975;50.390;8.640;2022-07-06T11:24:27;99897.22;;;26.19;36.19
54389;BME280;40975;50.390;8.640;2022-07-06T11:26:54;99902.22;;;25.29;35.73
54389;BME280;40975;50.390;8.640;2022-07-06T11:29:21;99899.84;;;25.14;37.09
54389;BME280;40975;50.390;8.640;2022-07-06T11:31:48;99901.56;;;24.51;36.37
54389;BME280;40975;50.390;8.640;2022-07-06T11:34:18;99896.47;;;25.19;37.44
54389;BME280;40975;50.390;8.640;2022-07-06T11:36:44;99882.69;;;25.76;35.12
54389;BME280;40975;50.390;8.640;2022-07-06T11:39:09;99879.28;;;26.30;35.25
54389;BME280;40975;50.390;8.640;2022-07-06T11:41:35;99884.88;;;26.47;35.62
54389;BME280;40975;50.390;8.640;2022-07-06T11:44:01;99888.97;;;26.92;34.13
54389;BME280;40975;50.390;8.640;2022-07-06T11:46:28;99882.13;;;27.02;34.61
54389;BME280;40975;50.390;8.640;2022-07-06T11:48:59;99887.50;;;26.54;33.29
54389;BME280;40975;50.390;8.640;2022-07-06T11:51:26;99878.88;;;26.69;34.72
54389;BME280;40975;50.390;8.640;2022-07-06T11:53:54;99879.75;;;26.27;35.65
54389;BME280;40975;50.390;8.640;2022-07-06T11:56:20;99873.59;;;25.83;35.51
54389;BME280;40975;50.390;8.640;2022-07-06T11:58:59;99875.56;;;25.94;34.75
54389;BME280;40975;50.390;8.640;2022-07-06T12:01:27;99874.50;;;25.95;35.01
54389;BME280;40975;50.390;8.640;2022-07-06T12:03:57;99877.88;;;25.60;33.03
54389;BME280;40975;50.390;8.640;2022-07-06T12:06:24;99872.72;;;25.52;34.57
54389;BME280;40975;50.390;8.640;2022-07-06T12:08:52;99871.84;;;26.37;34.53
54389;BME280;40975;50.390;8.640;2022-07-06T12:11:28;99873.47;;;26.81;33.68
54389;BME280;40975;50.390;8.640;2022-07-06T12:13:57;99868.16;;;26.32;33.94
54389;BME280;40975;50.390;8.640;2022-07-06T12:16:34;99871.97;;;25.44;34.18
54389;BME280;40975;50.390;8.640;2022-07-06T12:19:02;99877.41;;;24.11;36.06
54389;BME280;40975;50.390;8.640;2022-07-06T12:21:27;99868.19;;;24.51;37.38
54389;BME280;40975;50.390;8.640;2022-07-06T12:23:54;99862.78;;;24.19;36.39
54389;BME280;40975;50.390;8.640;2022-07-06T12:26:22;99863.44;;;23.69;37.71
54389;BME280;40975;50.390;8.640;2022-07-06T12:29:04;99860.13;;;23.60;38.64
54389;BME280;40975;50.390;8.640;2022-07-06T12:31:40;99855.03;;;22.98;38.84
54389;BME280;40975;50.390;8.640;2022-07-06T12:34:14;99857.56;;;22.73;41.67
54389;BME280;40975;50.390;8.640;2022-07-06T12:36:47;99853.00;;;22.66;40.95
54389;BME280;40975;50.390;8.640;2022-07-06T12:39:17;99851.00;;;23.41;40.85
54389;BME280;40975;50.390;8.640;2022-07-06T12:41:50;99846.13;;;24.47;38.82
54389;BME280;40975;50.390;8.640;2022-07-06T12:44:18;99859.56;;;25.11;38.23
54389;BME280;40975;50.390;8.640;2022-07-06T12:46:44;99854.06;;;25.18;37.21
54389;BME280;40975;50.390;8.640;2022-07-06T12:51:50;99849.84;;;25.22;37.40
54389;BME280;40975;50.390;8.640;2022-07-06T12:54:17;99848.22;;;24.96;37.57
54389;BME280;40975;50.390;8.640;2022-07-06T12:59:26;99853.31;;;25.29;36.91
54389;BME280;40975;50.390;8.640;2022-07-06T13:01:54;99860.78;;;24.72;37.37
54389;BME280;40975;50.390;8.640;2022-07-06T13:04:27;99857.88;;;24.92;36.60